Main page
METAR-TAF:

METAR-TAF

Airports :

Annecy, France

Annecy – Haute-Savoie – Mont Blanc Airport

latitude: 45-55-45N, longitude: 006-05-56E, elevation: 463 m

Current weather observation

The report was made 39 minutes ago, at 10:30 UTC
Calm wind
Temperature 12°C
Humidity 58%
Pressure 1017 hPa
Visibility 10 km or more
no clouds below 1500 m and no cumulonimbus

METAR: LFLP 231030Z AUTO 00000KT CAVOK 12/04 Q1017 BECMG 21010KT

Time: 12:09 (11:09 UTC)

Forecast

The report was made 3 hours and 9 minutes ago, at 08:00 UTC
Forecast valid from 23 at 09 UTC to 24 at 09 UTC
Wind 2 kt from variable directions
Visibility 10 km or more
no clouds below 1500 m and no cumulonimbus
Becoming
from 23 at 09 UTC to 23 at 11 UTC
Wind 10 kt from the South/Southwest
Becoming
from 23 at 17 UTC to 23 at 19 UTC
Wind 2 kt from variable directions

TAF: LFLP 230800Z 2309/2409 VRB02KT CAVOK BECMG 2309/2311 21010KT BECMG 2317/2319 VRB02KT

Weather observations and forecasts of more than 4000 airports (METAR and TAF reports).

The available stations are represented by yellow and red dots on the map.

Hover mouse over dot to see the name of the station.

Then click to see weather observations and forecasts.

To change the map : click on the green buttons with a black cross to zoom in, on the green button with a dash to zoom out, or on the green arrows for adjacent maps.


METAR-TAF: